createdAt,value
2017-11-23T00:00:21.269Z,5.55
2017-11-23T00:02:48.728Z,5.95
2017-11-23T00:05:16.183Z,6.32
2017-11-23T00:07:43.621Z,6.10
2017-11-23T00:10:11.164Z,6.20
2017-11-23T00:12:40.109Z,5.93
2017-11-23T00:15:07.555Z,5.90
2017-11-23T00:17:34.982Z,5.28
2017-11-23T00:20:02.425Z,5.60
2017-11-23T00:22:29.981Z,5.90
2017-11-23T00:24:57.457Z,7.05
2017-11-23T00:27:24.892Z,6.47
2017-11-23T00:29:52.408Z,5.90
2017-11-23T00:32:19.834Z,6.22
2017-11-23T00:34:47.324Z,5.35
2017-11-23T00:37:14.770Z,5.95
2017-11-23T00:39:42.202Z,5.60
2017-11-23T00:42:09.642Z,6.15
2017-11-23T00:44:37.123Z,6.95
2017-11-23T00:47:05.361Z,5.55
2017-11-23T00:49:32.971Z,7.00
2017-11-23T00:52:00.445Z,5.57
2017-11-23T00:54:27.865Z,6.90
2017-11-23T00:56:55.307Z,6.65
2017-11-23T00:59:22.742Z,8.50
2017-11-23T01:01:50.389Z,6.97
2017-11-23T01:04:17.860Z,7.40
2017-11-23T01:06:45.296Z,7.40
2017-11-23T01:09:12.727Z,6.95
2017-11-23T01:11:40.160Z,6.22
2017-11-23T01:14:07.588Z,5.70
2017-11-23T01:16:35.072Z,5.22
2017-11-23T01:19:02.519Z,5.10
2017-11-23T01:21:29.976Z,5.05
2017-11-23T01:23:57.494Z,6.07
2017-11-23T01:26:25.121Z,5.93
2017-11-23T01:28:52.558Z,5.32
2017-11-23T01:31:20.003Z,5.20
2017-11-23T01:33:47.437Z,5.40
2017-11-23T01:36:14.882Z,5.60
2017-11-23T01:38:42.305Z,5.07
2017-11-23T01:41:09.741Z,5.57
2017-11-23T01:43:38.040Z,5.85
2017-11-23T01:46:05.461Z,5.72
2017-11-23T01:48:32.913Z,5.90
2017-11-23T01:51:00.341Z,4.87
2017-11-23T01:53:27.784Z,5.00
2017-11-23T01:55:55.212Z,6.43
2017-11-23T01:58:23.412Z,5.55
2017-11-23T02:00:50.841Z,6.80
2017-11-23T02:03:18.291Z,5.37
2017-11-23T02:05:45.770Z,5.07
2017-11-23T02:08:13.218Z,5.55
2017-11-23T02:10:40.645Z,5.03
2017-11-23T02:13:08.088Z,4.75
2017-11-23T02:15:35.511Z,4.35
2017-11-23T02:18:02.969Z,5.72
2017-11-23T02:20:30.403Z,5.53
2017-11-23T02:22:57.846Z,5.55
2017-11-23T02:25:25.284Z,5.72
2017-11-23T02:27:52.705Z,4.75
2017-11-23T02:30:20.148Z,4.75
2017-11-23T02:32:47.590Z,5.12
2017-11-23T02:35:15.156Z,4.75
2017-11-23T02:37:42.594Z,4.45
2017-11-23T02:40:10.024Z,5.85
2017-11-23T02:42:37.508Z,4.78
2017-11-23T02:45:04.941Z,4.65
2017-11-23T02:47:32.393Z,5.43
2017-11-23T02:50:01.336Z,5.30
2017-11-23T02:52:28.784Z,5.40
2017-11-23T02:54:56.218Z,5.20
2017-11-23T02:57:23.666Z,4.20
2017-11-23T02:59:51.111Z,4.90
2017-11-23T03:02:18.585Z,4.60
2017-11-23T03:04:46.009Z,4.45
2017-11-23T03:07:13.450Z,4.50
2017-11-23T03:09:40.889Z,4.30
2017-11-23T03:12:08.308Z,4.93
2017-11-23T03:14:35.797Z,4.68
2017-11-23T03:17:03.225Z,4.62
2017-11-23T03:19:30.677Z,4.03
2017-11-23T03:21:58.101Z,4.20
2017-11-23T03:24:25.533Z,3.95
2017-11-23T03:26:52.966Z,3.75
2017-11-23T03:29:20.409Z,4.18
2017-11-23T03:31:47.889Z,4.37
2017-11-23T03:34:15.315Z,4.97
2017-11-23T03:36:42.750Z,4.95
2017-11-23T03:39:10.185Z,4.60
2017-11-23T03:41:37.634Z,5.07
2017-11-23T03:44:05.072Z,4.12
2017-11-23T03:46:32.542Z,4.50
2017-11-23T03:48:59.982Z,4.28
2017-11-23T03:51:27.429Z,3.80
2017-11-23T03:53:54.886Z,4.30
2017-11-23T03:56:22.421Z,4.47
2017-11-23T03:58:49.845Z,4.60
2017-11-23T04:01:17.313Z,3.85
2017-11-23T04:03:44.752Z,4.87
2017-11-23T04:06:12.286Z,4.37
2017-11-23T04:08:39.829Z,4.20
2017-11-23T04:11:07.262Z,3.83
2017-11-23T04:13:34.689Z,3.78
2017-11-23T04:16:02.122Z,4.90
2017-11-23T04:18:29.548Z,4.28
2017-11-23T04:20:56.981Z,4.37
2017-11-23T04:23:25.188Z,4.32
2017-11-23T04:25:52.642Z,3.72
2017-11-23T04:28:20.109Z,4.03
2017-11-23T04:30:47.539Z,4.35
2017-11-23T04:33:15.090Z,4.57
2017-11-23T04:35:42.512Z,4.10
2017-11-23T04:38:09.967Z,4.22
2017-11-23T04:40:37.410Z,5.00
2017-11-23T04:43:04.853Z,4.62
2017-11-23T04:45:32.300Z,3.58
2017-11-23T04:48:01.252Z,4.40
2017-11-23T04:50:28.745Z,3.85
2017-11-23T04:52:56.973Z,4.65
2017-11-23T04:55:24.419Z,4.12
2017-11-23T04:57:51.850Z,4.53
2017-11-23T05:00:19.485Z,3.97
2017-11-23T05:02:46.969Z,4.43
2017-11-23T05:05:15.169Z,3.70
2017-11-23T05:07:42.616Z,3.65
2017-11-23T05:10:10.057Z,4.10
2017-11-23T05:12:37.532Z,4.25
2017-11-23T05:15:04.962Z,4.90
2017-11-23T05:17:32.409Z,5.35
2017-11-23T05:19:59.877Z,4.25
2017-11-23T05:22:27.410Z,3.90
2017-11-23T05:24:54.929Z,4.15
2017-11-23T05:27:22.411Z,3.67
2017-11-23T05:29:49.845Z,4.50
2017-11-23T05:32:17.279Z,4.55
2017-11-23T05:34:44.713Z,7.87
2017-11-23T05:37:12.149Z,5.90
2017-11-23T05:39:39.613Z,4.50
2017-11-23T05:42:07.045Z,4.15
2017-11-23T05:44:34.522Z,5.53
2017-11-23T05:47:02.759Z,5.30
2017-11-23T05:49:30.305Z,4.80
2017-11-23T05:51:57.720Z,4.05
2017-11-23T05:54:25.164Z,4.05
2017-11-23T05:56:52.634Z,5.80
2017-11-23T05:59:20.095Z,4.47
2017-11-23T06:01:47.546Z,5.90
2017-11-23T06:04:15.754Z,6.43
2017-11-23T06:06:43.182Z,5.72
2017-11-23T06:09:10.630Z,6.30
2017-11-23T06:11:38.178Z,6.12
2017-11-23T06:14:05.657Z,6.28
2017-11-23T06:16:33.093Z,6.07
2017-11-23T06:19:00.661Z,5.03
2017-11-23T06:21:28.903Z,3.55
2017-11-23T06:23:56.336Z,5.85
2017-11-23T06:26:23.784Z,5.60
2017-11-23T06:28:51.222Z,5.47
2017-11-23T06:31:18.781Z,4.78
2017-11-23T06:33:46.205Z,5.07
2017-11-23T06:36:13.676Z,4.50
2017-11-23T06:38:41.212Z,4.90
2017-11-23T06:41:08.661Z,3.78
2017-11-23T06:43:36.110Z,20.17
2017-11-23T06:46:04.349Z,5.57
2017-11-23T06:48:31.781Z,5.00
2017-11-23T06:50:59.217Z,4.43
2017-11-23T06:53:26.690Z,4.65
2017-11-23T06:55:54.123Z,4.25
2017-11-23T06:58:21.660Z,6.62
2017-11-23T07:00:49.097Z,5.18
2017-11-23T07:03:16.532Z,8.25
2017-11-23T07:05:43.990Z,7.10
2017-11-23T07:08:12.210Z,6.10
2017-11-23T07:10:39.673Z,5.95
2017-11-23T07:13:07.150Z,34.35
2017-11-23T07:15:34.589Z,12.70
2017-11-23T07:18:02.124Z,5.70
2017-11-23T07:20:29.570Z,5.32
2017-11-23T07:22:57.147Z,5.90
2017-11-23T07:25:25.343Z,6.65
2017-11-23T07:27:52.797Z,6.10
2017-11-23T07:30:20.364Z,7.55
2017-11-23T07:32:47.809Z,7.47
2017-11-23T07:35:15.368Z,7.07
2017-11-23T07:37:42.898Z,6.43
2017-11-23T07:40:10.321Z,6.30
2017-11-23T07:42:37.763Z,6.70
2017-11-23T07:45:05.198Z,6.25
2017-11-23T07:47:32.658Z,7.00
2017-11-23T07:50:00.119Z,6.75
2017-11-23T07:52:28.345Z,6.22
2017-11-23T07:54:55.878Z,6.35
2017-11-23T07:57:23.427Z,7.37
2017-11-23T07:59:50.901Z,7.00
2017-11-23T08:02:18.348Z,7.60
2017-11-23T08:04:45.885Z,7.47
2017-11-23T08:07:13.430Z,7.50
2017-11-23T08:09:40.972Z,7.15
2017-11-23T08:12:08.416Z,7.60
2017-11-23T08:14:35.977Z,8.05
2017-11-23T08:17:03.409Z,7.12
2017-11-23T08:19:30.862Z,6.62
2017-11-23T08:21:59.177Z,27.30
2017-11-23T08:24:26.664Z,6.87
2017-11-23T08:26:54.112Z,6.40
2017-11-23T08:29:22.399Z,6.85
2017-11-23T08:31:49.838Z,7.85
2017-11-23T08:34:17.349Z,5.40
2017-11-23T08:36:44.917Z,6.63
2017-11-23T08:39:12.375Z,8.02
2017-11-23T08:41:39.837Z,13.73
2017-11-23T08:44:07.330Z,20.20
2017-11-23T08:46:34.816Z,18.07
2017-11-23T08:49:02.267Z,18.47
2017-11-23T08:51:29.708Z,26.48
2017-11-23T08:53:57.273Z,35.10
2017-11-23T08:56:24.841Z,5.93
2017-11-23T08:58:52.288Z,8.17
2017-11-23T09:01:19.806Z,5.20
2017-11-23T09:03:47.274Z,4.37
2017-11-23T09:06:14.707Z,4.33
2017-11-23T09:08:42.173Z,5.07
2017-11-23T09:11:10.410Z,5.83
2017-11-23T09:13:37.972Z,5.20
2017-11-23T09:16:05.408Z,4.00
2017-11-23T09:18:32.900Z,4.53
2017-11-23T09:21:00.342Z,4.00
2017-11-23T09:23:27.831Z,3.87
2017-11-23T09:25:55.377Z,3.40
2017-11-23T09:28:22.946Z,4.00
2017-11-23T09:30:50.394Z,3.30
2017-11-23T09:33:18.586Z,2.67
2017-11-23T09:35:46.084Z,2.23
2017-11-23T09:38:14.236Z,3.03
2017-11-23T09:40:41.674Z,3.30
2017-11-23T09:43:09.110Z,3.27
2017-11-23T09:45:36.838Z,2.97
2017-11-23T09:48:04.250Z,3.33
2017-11-23T09:50:31.689Z,2.80
2017-11-23T09:52:59.121Z,2.50
2017-11-23T09:55:27.330Z,3.43
2017-11-23T09:57:54.846Z,3.90
2017-11-23T10:00:22.367Z,3.23
2017-11-23T10:02:50.559Z,2.80
2017-11-23T10:05:18.020Z,2.70
2017-11-23T10:07:45.457Z,2.43
2017-11-23T10:10:12.880Z,2.40
2017-11-23T10:12:40.326Z,2.77
2017-11-23T10:15:07.771Z,2.70
2017-11-23T10:17:35.215Z,2.33
2017-11-23T10:20:02.642Z,2.93
2017-11-23T10:22:30.141Z,3.33
2017-11-23T10:24:57.669Z,3.57
2017-11-23T10:27:25.141Z,8.83
2017-11-23T10:29:52.599Z,4.10
2017-11-23T10:32:20.822Z,4.10
2017-11-23T10:34:48.269Z,4.20
2017-11-23T10:37:15.719Z,3.57
2017-11-23T10:39:43.174Z,3.90
2017-11-23T10:42:10.622Z,4.53
2017-11-23T10:44:38.829Z,3.80
2017-11-23T10:47:06.305Z,4.20
2017-11-23T10:49:34.565Z,4.57
2017-11-23T10:52:02.006Z,4.13
2017-11-23T10:54:29.446Z,3.80
2017-11-23T10:56:57.036Z,3.07
2017-11-23T10:59:25.215Z,3.83
2017-11-23T11:01:52.685Z,3.50
2017-11-23T11:04:20.113Z,4.00
2017-11-23T11:06:47.569Z,3.47
2017-11-23T11:09:15.006Z,3.73
2017-11-23T11:11:42.443Z,3.43
2017-11-23T11:14:10.302Z,3.53
2017-11-23T11:16:37.777Z,3.70
2017-11-23T11:19:05.209Z,3.57
2017-11-23T11:21:32.645Z,3.50
2017-11-23T11:24:00.089Z,3.03
2017-11-23T11:26:27.525Z,3.20
2017-11-23T11:28:54.977Z,2.93
2017-11-23T11:31:22.438Z,3.77
2017-11-23T11:33:50.681Z,3.33
2017-11-23T11:36:18.228Z,3.60
2017-11-23T11:38:45.666Z,3.40
2017-11-23T11:41:13.102Z,3.07
2017-11-23T11:43:40.538Z,4.00
2017-11-23T11:46:07.973Z,3.43
2017-11-23T11:48:35.502Z,3.03
2017-11-23T11:51:03.702Z,3.70
2017-11-23T11:53:31.143Z,3.40
2017-11-23T11:55:58.577Z,2.80
2017-11-23T11:58:26.019Z,2.80
2017-11-23T12:00:53.463Z,3.50
2017-11-23T12:03:20.918Z,2.60
2017-11-23T12:05:48.362Z,3.50
2017-11-23T12:08:16.186Z,3.23
2017-11-23T12:10:43.652Z,2.67
2017-11-23T12:13:11.089Z,2.53
2017-11-23T12:15:38.657Z,3.20
2017-11-23T12:18:18.062Z,2.90
2017-11-23T12:20:57.520Z,2.33
2017-11-23T12:23:36.849Z,3.07
2017-11-23T12:26:04.290Z,3.47
2017-11-23T12:28:56.276Z,3.30
2017-11-23T12:31:24.494Z,2.60
2017-11-23T12:33:51.935Z,3.17
2017-11-23T12:36:19.491Z,3.80
2017-11-23T12:38:47.010Z,2.70
2017-11-23T12:41:14.563Z,3.07
2017-11-23T12:43:41.991Z,2.03
2017-11-23T12:46:09.435Z,1.87
2017-11-23T12:48:36.930Z,2.60
2017-11-23T12:51:04.409Z,2.60
2017-11-23T12:53:32.678Z,2.10
2017-11-23T12:56:00.110Z,2.10
2017-11-23T12:58:27.550Z,1.80
2017-11-23T13:00:55.756Z,2.90
2017-11-23T13:03:23.222Z,2.00
2017-11-23T13:05:51.585Z,2.63
2017-11-23T13:08:20.081Z,2.23
2017-11-23T13:10:48.329Z,2.10
2017-11-23T13:13:16.839Z,2.70
2017-11-23T13:15:44.333Z,2.60
2017-11-23T13:18:11.865Z,2.13
2017-11-23T13:20:40.000Z,2.10
2017-11-23T13:23:07.441Z,2.20
2017-11-23T13:25:34.880Z,2.20
2017-11-23T13:28:02.326Z,2.50
2017-11-23T13:30:29.775Z,2.57
2017-11-23T13:32:57.222Z,2.13
2017-11-23T13:35:24.676Z,2.30
2017-11-23T13:37:52.145Z,2.27
2017-11-23T13:40:20.367Z,2.33
2017-11-23T13:42:47.809Z,2.60
2017-11-23T13:45:15.259Z,2.50
2017-11-23T13:47:42.769Z,2.93
2017-11-23T13:50:10.221Z,2.30
2017-11-23T13:52:37.690Z,2.00
2017-11-23T13:55:05.117Z,2.50
2017-11-23T13:57:32.589Z,2.20
2017-11-23T14:00:00.021Z,2.07
2017-11-23T14:02:27.488Z,1.80
2017-11-23T14:04:55.696Z,2.10
2017-11-23T14:07:23.188Z,3.00
2017-11-23T14:09:50.626Z,1.90
2017-11-23T14:12:18.066Z,2.50
2017-11-23T14:14:45.506Z,2.43
2017-11-23T14:17:12.989Z,2.73
2017-11-23T14:19:41.218Z,6.00
2017-11-23T14:22:08.650Z,2.30
2017-11-23T14:24:36.157Z,2.43
2017-11-23T14:27:03.596Z,2.33
2017-11-23T14:29:31.119Z,2.77
2017-11-23T14:31:59.343Z,2.80
2017-11-23T14:34:26.793Z,2.70
2017-11-23T14:36:55.014Z,2.40
2017-11-23T14:39:22.450Z,3.30
2017-11-23T14:41:49.897Z,2.70
2017-11-23T14:44:17.347Z,2.00
2017-11-23T14:46:44.789Z,2.90
2017-11-23T14:49:12.257Z,2.50
2017-11-23T14:51:39.754Z,2.43
2017-11-23T14:54:07.224Z,2.70
2017-11-23T14:56:34.699Z,2.50
2017-11-23T14:59:02.176Z,3.40
2017-11-23T15:01:29.688Z,2.77
2017-11-23T15:03:57.122Z,2.90
2017-11-23T15:06:24.666Z,2.90
2017-11-23T15:08:52.173Z,3.10
2017-11-23T15:11:19.798Z,2.97
2017-11-23T15:13:47.306Z,3.17
2017-11-23T15:16:14.763Z,2.97
2017-11-23T15:18:42.886Z,3.07
2017-11-23T15:21:10.334Z,2.70
2017-11-23T15:23:37.796Z,3.40
2017-11-23T15:26:06.007Z,2.90
2017-11-23T15:28:33.510Z,3.20
2017-11-23T15:31:01.809Z,2.60
2017-11-23T15:33:29.264Z,2.90
2017-11-23T15:35:57.553Z,3.60
2017-11-23T15:38:25.102Z,2.97
2017-11-23T15:40:52.679Z,3.70
2017-11-23T15:43:21.082Z,3.37
2017-11-23T15:45:49.526Z,3.20
2017-11-23T15:48:16.957Z,3.40
2017-11-23T15:50:44.412Z,3.53
2017-11-23T15:53:11.901Z,3.40
2017-11-23T15:55:39.352Z,2.67
2017-11-23T15:58:06.902Z,3.40
2017-11-23T16:00:34.374Z,4.27
2017-11-23T16:03:01.814Z,3.60
2017-11-23T16:05:30.010Z,3.50
2017-11-23T16:07:57.559Z,5.10
2017-11-23T16:10:25.026Z,4.00
2017-11-23T16:12:53.067Z,3.70
2017-11-23T16:15:20.549Z,4.87
2017-11-23T16:17:48.758Z,4.20
2017-11-23T16:20:16.226Z,3.90
2017-11-23T16:22:43.671Z,3.83
2017-11-23T16:25:11.146Z,3.90
2017-11-23T16:27:39.374Z,4.63
2017-11-23T16:30:06.819Z,5.00
2017-11-23T16:32:34.266Z,4.80
2017-11-23T16:35:01.714Z,4.43
2017-11-23T16:37:30.213Z,5.17
2017-11-23T16:40:00.472Z,5.50
2017-11-23T16:42:29.505Z,4.60
2017-11-23T16:45:02.725Z,5.23
2017-11-23T16:47:45.910Z,6.03
2017-11-23T16:53:27.789Z,4.40
2017-11-23T16:56:00.884Z,6.30
2017-11-23T16:58:34.136Z,6.28
2017-11-23T17:01:07.413Z,5.17
2017-11-23T17:03:52.501Z,5.40
2017-11-23T17:06:25.525Z,5.60
2017-11-23T17:08:58.808Z,5.30
2017-11-23T17:11:32.822Z,5.60
2017-11-23T17:14:06.149Z,6.72
2017-11-23T17:16:37.233Z,6.20
2017-11-23T17:19:06.031Z,7.53
2017-11-23T17:21:33.529Z,6.82
2017-11-23T17:24:01.868Z,6.78
2017-11-23T17:26:29.445Z,7.30
2017-11-23T17:28:57.695Z,6.37
2017-11-23T17:31:25.317Z,7.65
2017-11-23T17:33:52.884Z,7.30
2017-11-23T17:36:20.353Z,6.32
2017-11-23T17:38:48.577Z,6.70
2017-11-23T17:41:16.025Z,7.50
2017-11-23T17:43:43.484Z,7.43
2017-11-23T17:46:10.936Z,7.95
2017-11-23T17:48:39.182Z,7.43
2017-11-23T17:51:06.659Z,8.63
2017-11-23T17:53:34.122Z,8.87
2017-11-23T17:56:01.597Z,7.40
2017-11-23T17:58:29.057Z,9.77
2017-11-23T18:00:56.538Z,8.15
2017-11-23T18:03:24.043Z,8.73
2017-11-23T18:05:51.495Z,7.97
2017-11-23T18:08:19.761Z,8.35
2017-11-23T18:10:47.256Z,7.40
2017-11-23T18:13:14.794Z,10.02
2017-11-23T18:15:42.295Z,8.57
2017-11-23T18:18:10.543Z,7.60
2017-11-23T18:20:38.027Z,8.35
2017-11-23T18:23:05.642Z,8.75
2017-11-23T18:25:33.112Z,8.07
2017-11-23T18:28:00.629Z,7.12
2017-11-23T18:30:28.832Z,7.60
2017-11-23T18:32:56.292Z,7.55
2017-11-23T18:35:23.799Z,5.95
2017-11-23T18:37:51.239Z,7.12
2017-11-23T18:40:18.737Z,6.37
2017-11-23T18:42:46.237Z,6.57
2017-11-23T18:45:13.675Z,6.03
2017-11-23T18:47:41.163Z,5.80
2017-11-23T18:50:08.636Z,7.57
2017-11-23T18:52:36.214Z,8.30
2017-11-23T18:55:03.700Z,7.12
2017-11-23T18:57:31.180Z,7.10
2017-11-23T18:59:59.374Z,7.22
2017-11-23T19:02:27.631Z,8.07
2017-11-23T19:04:55.068Z,5.60
2017-11-23T19:07:22.555Z,7.70
2017-11-23T19:09:49.989Z,6.47
2017-11-23T19:12:17.481Z,6.85
2017-11-23T19:14:44.924Z,7.05
2017-11-23T19:17:12.645Z,5.85
2017-11-23T19:19:40.144Z,7.35
2017-11-23T19:22:07.642Z,7.43
2017-11-23T19:24:35.128Z,8.40
2017-11-23T19:27:02.609Z,17.60
2017-11-23T19:29:30.069Z,24.77
2017-11-23T19:31:57.565Z,22.00
2017-11-23T19:34:25.061Z,14.23
2017-11-23T19:36:52.580Z,10.15
2017-11-23T19:39:20.154Z,9.88
2017-11-23T19:41:47.662Z,9.85
2017-11-23T19:44:15.155Z,9.55
2017-11-23T19:46:42.622Z,11.52
2017-11-23T19:49:10.968Z,21.83
2017-11-23T19:51:38.497Z,19.90
2017-11-23T19:54:06.025Z,15.55
2017-11-23T19:56:34.268Z,18.52
2017-11-23T19:59:01.773Z,18.05
2017-11-23T20:01:29.288Z,9.30
2017-11-23T20:03:57.551Z,15.93
2017-11-23T20:06:25.026Z,8.18
2017-11-23T20:08:52.584Z,9.68
2017-11-23T20:11:20.199Z,16.40
2017-11-23T20:13:47.682Z,17.67
2017-11-23T20:16:15.179Z,18.27
2017-11-23T20:18:42.669Z,9.90
2017-11-23T20:21:10.106Z,8.68
2017-11-23T20:23:37.604Z,21.70
2017-11-23T20:26:05.120Z,14.57
2017-11-23T20:28:32.595Z,8.35
2017-11-23T20:31:00.088Z,9.27
2017-11-23T20:33:27.568Z,15.90
2017-11-23T20:35:55.829Z,11.43
2017-11-23T20:38:23.257Z,10.40
2017-11-23T20:40:51.507Z,12.60
2017-11-23T20:43:19.008Z,14.27
2017-11-23T20:45:46.457Z,8.25
2017-11-23T20:48:13.985Z,9.43
2017-11-23T20:50:41.460Z,12.52
2017-11-23T20:53:08.984Z,13.02
2017-11-23T20:55:36.475Z,9.48
2017-11-23T20:58:03.952Z,9.82
2017-11-23T21:00:31.456Z,10.98
2017-11-23T21:02:58.945Z,8.55
2017-11-23T21:05:26.412Z,7.05
2017-11-23T21:07:53.884Z,8.82
2017-11-23T21:10:21.362Z,11.15
2017-11-23T21:12:49.616Z,26.87
2017-11-23T21:15:17.995Z,15.23
2017-11-23T21:17:45.496Z,13.73
2017-11-23T21:20:12.968Z,16.27
2017-11-23T21:22:41.252Z,10.57
2017-11-23T21:25:08.748Z,9.40
2017-11-23T21:27:36.230Z,10.27
2017-11-23T21:30:03.777Z,10.05
2017-11-23T21:32:31.325Z,8.30
2017-11-23T21:34:58.817Z,8.70
2017-11-23T21:37:26.299Z,6.20
2017-11-23T21:39:54.532Z,7.18
2017-11-23T21:42:22.120Z,13.35
2017-11-23T21:44:49.646Z,11.77
2017-11-23T21:47:17.912Z,10.05
2017-11-23T21:49:45.407Z,8.57
2017-11-23T21:52:13.703Z,8.20
2017-11-23T21:54:41.617Z,6.97
2017-11-23T21:57:09.135Z,15.43
2017-11-23T21:59:36.643Z,11.00
2017-11-23T22:02:04.196Z,6.47
2017-11-23T22:04:32.444Z,8.40
2017-11-23T22:06:59.919Z,7.50
2017-11-23T22:09:27.432Z,10.65
2017-11-23T22:11:54.932Z,8.10
2017-11-23T22:14:22.461Z,6.62
2017-11-23T22:16:49.951Z,11.35
2017-11-23T22:19:17.464Z,7.20
2017-11-23T22:21:45.106Z,10.32
2017-11-23T22:24:12.657Z,16.33
2017-11-23T22:26:40.104Z,8.32
2017-11-23T22:29:07.602Z,8.52
2017-11-23T22:31:35.835Z,8.55
2017-11-23T22:34:03.428Z,15.48
2017-11-23T22:36:30.980Z,19.25
2017-11-23T22:38:58.511Z,9.25
2017-11-23T22:41:25.981Z,20.70
2017-11-23T22:43:53.458Z,20.08
2017-11-23T22:46:21.077Z,9.85
2017-11-23T22:48:48.529Z,9.57
2017-11-23T22:51:16.018Z,18.20
2017-11-23T22:53:44.264Z,17.80
2017-11-23T22:56:11.845Z,19.00
2017-11-23T22:58:39.277Z,20.42
2017-11-23T23:01:06.734Z,8.80
2017-11-23T23:03:34.210Z,8.95
2017-11-23T23:06:01.724Z,12.93
2017-11-23T23:08:29.220Z,21.60
2017-11-23T23:10:56.799Z,6.45
2017-11-23T23:13:24.285Z,7.85
2017-11-23T23:15:51.774Z,22.15
2017-11-23T23:18:19.999Z,10.50
2017-11-23T23:20:47.687Z,21.60
2017-11-23T23:23:16.054Z,22.27
2017-11-23T23:25:43.669Z,19.98
2017-11-23T23:28:11.116Z,11.85
2017-11-23T23:30:38.603Z,15.73
2017-11-23T23:33:06.049Z,19.10
2017-11-23T23:35:33.556Z,9.40
2017-11-23T23:38:01.774Z,15.35
2017-11-23T23:40:30.219Z,9.27
2017-11-23T23:42:57.672Z,22.95
2017-11-23T23:45:25.114Z,18.73
2017-11-23T23:47:52.570Z,18.35
2017-11-23T23:50:20.029Z,8.52
2017-11-23T23:52:47.592Z,13.93
2017-11-23T23:55:15.131Z,13.88
2017-11-23T23:57:42.592Z,18.60
